Time;durP1;ratioP1;P1;durP2;ratioP2;P2;SDS_P1;SDS_P2;PMS_P1;PMS_P2;Temp;Humidity;BMP_temperature;BMP_pressure;BME280_temperature;BME280_humidity;BME280_pressure;Samples;Min_cycle;Max_cycle;Signal;HPM_P1;HPM_P2
2022/10/21 00:00:53;;;;;;;4.50;4.10;;;13.30;99.90;;;;;;5135018;27;20603;-83
2022/10/21 00:03:21;;;;;;;3.83;3.53;;;13.90;99.90;;;;;;5135024;27;21074;-83
2022/10/21 00:05:48;;;;;;;5.10;4.17;;;13.30;99.90;;;;;;5117808;27;20728;-84
2022/10/21 00:08:20;;;;;;;5.77;4.40;;;13.20;99.90;;;;;;5114465;28;20620;-83
2022/10/21 00:10:51;;;;;;;5.23;3.77;;;13.20;99.90;;;;;;5114543;28;20651;-84
2022/10/21 00:13:17;;;;;;;5.83;4.50;;;13.30;99.90;;;;;;5114717;28;20686;-84
2022/10/21 00:15:44;;;;;;;5.23;4.20;;;13.30;99.90;;;;;;5115487;27;20719;-83
2022/10/21 00:18:11;;;;;;;4.43;4.10;;;13.30;99.90;;;;;;5134730;27;20591;-83
2022/10/21 00:20:40;;;;;;;4.90;3.50;;;13.40;99.90;;;;;;5134762;27;20635;-84
2022/10/21 00:23:07;;;;;;;3.07;2.87;;;13.30;99.90;;;;;;5134861;27;20614;-84
2022/10/21 00:25:37;;;;;;;4.50;4.10;;;13.30;99.90;;;;;;5134656;27;20637;-83
2022/10/21 00:28:04;;;;;;;5.27;4.00;;;13.40;99.90;;;;;;5134262;27;20646;-83
2022/10/21 00:30:31;;;;;;;5.60;4.03;;;13.30;99.90;;;;;;5134306;27;20617;-83
2022/10/21 00:32:58;;;;;;;4.10;3.33;;;13.20;99.90;;;;;;5134589;27;20615;-83
2022/10/21 00:35:25;;;;;;;8.20;4.23;;;13.20;99.90;;;;;;5134580;27;20606;-83
2022/10/21 00:37:51;;;;;;;5.50;4.00;;;13.10;99.90;;;;;;5134052;27;20621;-84
2022/10/21 00:40:18;;;;;;;5.47;4.47;;;13.10;99.90;;;;;;5134236;27;20657;-83
2022/10/21 00:42:47;;;;;;;4.00;3.60;;;13.20;99.90;;;;;;5134037;27;20611;-83
2022/10/21 00:45:19;;;;;;;3.57;3.27;;;13.30;99.90;;;;;;5134206;27;20646;-83
2022/10/21 00:47:51;;;;;;;4.60;3.50;;;13.00;99.90;;;;;;5134000;27;20694;-83
2022/10/21 00:50:25;;;;;;;4.57;3.10;;;13.00;99.90;;;;;;5134862;27;20654;-83
2022/10/21 00:52:53;;;;;;;4.80;4.40;;;13.10;99.90;;;;;;5134520;27;20855;-82
2022/10/21 00:55:21;;;;;;;5.67;3.73;;;13.30;99.90;;;;;;5132823;27;20635;-84
2022/10/21 00:57:50;;;;;;;10.23;5.27;;;13.00;99.90;;;;;;5133073;27;20615;-83
2022/10/21 01:00:18;;;;;;;4.03;3.53;;;13.00;99.90;;;;;;5133663;27;20627;-83
2022/10/21 01:02:45;;;;;;;4.87;4.43;;;13.30;99.90;;;;;;5133264;27;20652;-83
2022/10/21 01:05:12;;;;;;;4.13;3.07;;;13.00;99.90;;;;;;5131040;27;20619;-82
2022/10/21 01:07:39;;;;;;;4.23;3.83;;;13.00;99.90;;;;;;5130468;27;20790;-84
2022/10/21 01:10:06;;;;;;;6.40;4.50;;;13.00;99.90;;;;;;5133279;27;20591;-82
2022/10/21 01:12:41;;;;;;;4.33;3.80;;;12.90;99.90;;;;;;5122905;27;20689;-83
2022/10/21 01:15:16;;;;;;;7.00;4.00;;;12.90;99.90;;;;;;5113037;28;20610;-83
2022/10/21 01:17:49;;;;;;;12.43;4.97;;;12.90;99.90;;;;;;5131969;27;20614;-82
2022/10/21 01:20:38;;;;;;;4.57;3.50;;;13.10;99.90;;;;;;5133380;27;20610;-82
2022/10/21 01:23:31;;;;;;;4.83;4.43;;;13.10;99.90;;;;;;5126961;27;20626;-82
2022/10/21 01:26:35;;;;;;;4.37;3.60;;;12.90;99.90;;;;;;5133742;27;20641;-83
2022/10/21 01:29:21;;;;;;;4.27;3.87;;;12.90;99.90;;;;;;5081089;27;20698;-82
2022/10/21 01:31:53;;;;;;;5.00;3.90;;;12.90;99.90;;;;;;5132930;27;20627;-83
2022/10/21 01:34:27;;;;;;;8.77;4.30;;;13.00;99.90;;;;;;5133183;27;20965;-83
2022/10/21 01:36:58;;;;;;;5.60;5.00;;;12.90;99.90;;;;;;5133266;27;20618;-83
2022/10/21 01:39:32;;;;;;;4.53;4.10;;;12.90;99.90;;;;;;5133478;27;20666;-82
2022/10/21 01:42:03;;;;;;;7.73;3.87;;;12.80;99.90;;;;;;5133517;27;20967;-83
2022/10/21 01:44:36;;;;;;;5.63;3.67;;;12.80;99.90;;;;;;5133041;27;20668;-84
2022/10/21 01:47:10;;;;;;;8.30;4.20;;;12.90;99.90;;;;;;5133060;27;20645;-83
2022/10/21 01:49:43;;;;;;;4.90;3.97;;;12.80;99.90;;;;;;5132976;27;21160;-82
2022/10/21 01:52:12;;;;;;;3.13;2.73;;;12.80;99.90;;;;;;5133104;27;21012;-83
2022/10/21 01:54:48;;;;;;;3.43;3.13;;;12.90;99.90;;;;;;5132873;27;20607;-82
2022/10/21 01:57:18;;;;;;;4.33;3.83;;;12.80;99.90;;;;;;5132811;27;20704;-83
2022/10/21 01:59:47;;;;;;;6.17;4.23;;;12.80;99.90;;;;;;5132883;27;20612;-83
2022/10/21 02:02:16;;;;;;;6.57;4.63;;;12.80;99.90;;;;;;5132786;27;20961;-82
2022/10/21 02:04:45;;;;;;;4.97;3.23;;;12.90;99.90;;;;;;5125106;27;20699;-83
2022/10/21 02:07:12;;;;;;;5.43;3.67;;;12.90;99.90;;;;;;5112144;28;20659;-82
2022/10/21 02:09:39;;;;;;;4.23;3.70;;;13.00;99.90;;;;;;5116346;27;20610;-83
2022/10/21 02:12:07;;;;;;;4.40;3.03;;;13.00;99.90;;;;;;5132527;27;20650;-83
2022/10/21 02:14:39;;;;;;;3.27;2.97;;;13.00;99.90;;;;;;5132611;27;21358;-83
2022/10/21 02:17:07;;;;;;;2.97;2.77;;;13.10;99.90;;;;;;5131563;27;20634;-82
2022/10/21 02:19:36;;;;;;;4.47;3.97;;;13.20;99.90;;;;;;5132614;27;20610;-83
2022/10/21 02:22:05;;;;;;;2.80;2.60;;;13.20;99.90;;;;;;5132977;27;20716;-83
2022/10/21 02:24:38;;;;;;;4.40;3.40;;;13.20;99.90;;;;;;5132695;27;20598;-83
2022/10/21 02:27:05;;;;;;;5.73;3.53;;;13.30;99.90;;;;;;5131657;27;20695;-83
2022/10/21 02:29:35;;;;;;;6.03;3.80;;;13.30;99.90;;;;;;5132350;27;20614;-82
2022/10/21 02:32:14;;;;;;;5.43;4.90;;;13.30;99.90;;;;;;5132453;27;20725;-84
2022/10/21 02:35:01;;;;;;;3.23;3.03;;;13.30;99.90;;;;;;5112009;28;20607;-83
2022/10/21 02:37:35;;;;;;;4.93;4.10;;;13.30;99.90;;;;;;5127400;27;20625;-83
2022/10/21 02:40:08;;;;;;;3.80;3.50;;;13.40;99.90;;;;;;5132170;27;20614;-83
2022/10/21 02:42:40;;;;;;;4.27;2.97;;;13.40;99.90;;;;;;5132167;27;20640;-83
2022/10/21 02:45:09;;;;;;;4.87;4.43;;;13.40;99.90;;;;;;5132191;27;20611;-83
2022/10/21 02:47:36;;;;;;;4.27;3.93;;;13.10;99.90;;;;;;5131760;27;20638;-83
2022/10/21 02:50:06;;;;;;;3.53;3.00;;;13.30;99.90;;;;;;5131420;27;20664;-83
2022/10/21 02:52:33;;;;;;;4.57;3.70;;;13.30;99.90;;;;;;5132020;27;20941;-82
2022/10/21 02:55:00;;;;;;;3.87;3.43;;;13.40;99.90;;;;;;5131885;27;20642;-84
2022/10/21 02:57:27;;;;;;;3.43;3.03;;;13.40;99.90;;;;;;5131619;27;20724;-83
2022/10/21 02:59:54;;;;;;;4.93;3.40;;;13.40;99.90;;;;;;5131785;27;20642;-83
2022/10/21 03:02:21;;;;;;;3.40;3.10;;;13.50;99.90;;;;;;5131483;27;20621;-83
2022/10/21 03:04:47;;;;;;;3.63;2.97;;;14.10;99.90;;;;;;5123257;27;20716;-82
2022/10/21 03:07:16;;;;;;;4.83;3.23;;;13.50;99.90;;;;;;5111122;28;21193;-83
2022/10/21 03:09:42;;;;;;;7.60;4.87;;;13.60;99.90;;;;;;5111462;28;20592;-83
2022/10/21 03:12:09;;;;;;;5.90;4.60;;;13.70;99.90;;;;;;5110854;28;21170;-83
2022/10/21 03:14:36;;;;;;;5.63;4.17;;;13.70;99.90;;;;;;5111572;28;20608;-83
2022/10/21 03:17:03;;;;;;;5.27;4.00;;;13.70;99.90;;;;;;5123390;28;20706;-83
2022/10/21 03:19:30;;;;;;;5.50;4.40;;;13.70;99.90;;;;;;5132637;28;20803;-83
2022/10/21 03:21:56;;;;;;;5.63;3.50;;;13.70;99.90;;;;;;5132372;28;20643;-83
2022/10/21 03:24:25;;;;;;;11.03;5.03;;;13.70;99.90;;;;;;5131490;28;20595;-82
2022/10/21 03:26:51;;;;;;;5.87;5.37;;;13.80;99.90;;;;;;5131503;28;20674;-83
2022/10/21 03:29:18;;;;;;;5.57;3.57;;;13.80;99.90;;;;;;5134734;27;20705;-83
2022/10/21 03:31:45;;;;;;;7.07;3.90;;;13.90;99.90;;;;;;5135393;27;20625;-83
2022/10/21 03:34:12;;;;;;;4.63;2.93;;;13.70;99.90;;;;;;5135615;27;21224;-83
2022/10/21 03:36:39;;;;;;;3.67;3.00;;;13.80;99.90;;;;;;5135798;27;20607;-83
2022/10/21 03:39:07;;;;;;;7.70;3.93;;;13.80;99.90;;;;;;5135680;27;20667;-83
2022/10/21 03:41:35;;;;;;;6.57;4.73;;;13.80;99.90;;;;;;5135972;27;20623;-83
2022/10/21 03:44:02;;;;;;;7.10;5.07;;;13.90;99.90;;;;;;5135127;27;20638;-82
2022/10/21 03:46:28;;;;;;;7.20;4.80;;;13.90;99.90;;;;;;5135718;27;20643;-82
2022/10/21 03:48:55;;;;;;;5.60;4.47;;;13.90;99.90;;;;;;5135364;27;20603;-83
2022/10/21 03:51:22;;;;;;;6.00;3.83;;;14.00;99.90;;;;;;5142872;27;20710;-83
2022/10/21 03:53:49;;;;;;;5.80;5.10;;;13.90;99.90;;;;;;5150438;27;20614;-83
2022/10/21 03:56:16;;;;;;;6.00;3.97;;;13.90;99.90;;;;;;5155813;27;21159;-83
2022/10/21 03:58:44;;;;;;;4.67;4.27;;;13.80;99.90;;;;;;5148972;27;20697;-83
2022/10/21 04:01:12;;;;;;;4.63;4.10;;;13.80;99.90;;;;;;5135709;27;20610;-83
2022/10/21 04:03:39;;;;;;;5.93;5.43;;;13.80;99.90;;;;;;5135323;27;20963;-84
2022/10/21 04:06:10;;;;;;;6.07;5.50;;;13.80;99.90;;;;;;5132174;27;20618;-84
2022/10/21 04:08:37;;;;;;;6.30;5.67;;;;;;;;;;5140862;27;20661;-83
2022/10/21 04:11:04;;;;;;;4.97;4.47;;;13.80;99.90;;;;;;5135921;27;20662;-83
2022/10/21 04:13:31;;;;;;;4.60;4.20;;;13.90;99.90;;;;;;5116712;27;21216;-83
2022/10/21 04:16:00;;;;;;;4.60;4.13;;;13.70;99.90;;;;;;5118798;27;20664;-83
2022/10/21 04:18:27;;;;;;;2.83;2.50;;;13.70;99.90;;;;;;5135213;27;21018;-84
2022/10/21 04:20:54;;;;;;;4.40;4.00;;;13.80;99.90;;;;;;5140135;27;21220;-83
2022/10/21 04:23:21;;;;;;;3.53;3.23;;;13.80;99.90;;;;;;5144691;27;20699;-83
2022/10/21 04:25:48;;;;;;;3.53;3.23;;;13.80;99.90;;;;;;5142961;27;20710;-83
2022/10/21 04:28:14;;;;;;;2.67;2.47;;;13.80;99.90;;;;;;5146547;27;20657;-83
2022/10/21 04:30:44;;;;;;;3.70;3.20;;;13.40;99.90;;;;;;5142741;27;21224;-85
2022/10/21 04:33:12;;;;;;;3.80;3.50;;;13.80;99.90;;;;;;5148177;27;20609;-83
2022/10/21 04:35:39;;;;;;;4.07;2.97;;;13.90;99.90;;;;;;5147652;27;20714;-84
2022/10/21 04:38:07;;;;;;;6.83;4.80;;;13.90;99.90;;;;;;5132610;27;20599;-84
2022/10/21 04:40:34;;;;;;;2.97;2.67;;;13.80;99.90;;;;;;5131901;27;20594;-84
2022/10/21 04:43:01;;;;;;;4.23;3.80;;;13.90;99.90;;;;;;5133254;27;21152;-83
2022/10/21 04:45:28;;;;;;;6.10;4.10;;;;;;;;;;5134418;27;20659;-83
2022/10/21 04:47:55;;;;;;;3.73;3.33;;;13.80;99.90;;;;;;5134168;27;20681;-84
2022/10/21 04:50:23;;;;;;;4.20;3.90;;;13.90;99.90;;;;;;5134016;27;20733;-83
2022/10/21 04:52:50;;;;;;;4.17;3.30;;;13.80;99.90;;;;;;5133901;27;20726;-84
2022/10/21 04:55:17;;;;;;;3.53;3.00;;;13.90;99.90;;;;;;5133092;27;20627;-83
2022/10/21 04:57:44;;;;;;;2.93;2.73;;;13.80;99.90;;;;;;5132313;27;20654;-83
2022/10/21 05:00:12;;;;;;;4.87;4.47;;;13.90;99.90;;;;;;5129882;27;20653;-84
2022/10/21 05:02:38;;;;;;;4.80;3.50;;;13.80;99.90;;;;;;5129104;27;20774;-84
2022/10/21 05:05:06;;;;;;;3.73;3.17;;;13.80;99.90;;;;;;5123109;27;20603;-83
2022/10/21 05:07:34;;;;;;;4.37;3.70;;;13.70;99.90;;;;;;5132380;27;20715;-84
2022/10/21 05:10:01;;;;;;;3.20;2.93;;;13.90;99.90;;;;;;5133760;27;20638;-84
2022/10/21 05:12:28;;;;;;;3.57;2.43;;;14.60;99.90;;;;;;5123432;27;20623;-83
2022/10/21 05:14:55;;;;;;;6.07;3.17;;;14.60;99.90;;;;;;5113597;28;20608;-84
2022/10/21 05:17:22;;;;;;;2.43;2.17;;;14.00;99.90;;;;;;5128444;27;20607;-84
2022/10/21 05:19:49;;;;;;;4.50;1.97;;;14.00;99.90;;;;;;5134574;27;20611;-84
2022/10/21 05:22:15;;;;;;;2.00;1.90;;;14.10;99.90;;;;;;5132819;27;21075;-84
2022/10/21 05:24:43;;;;;;;2.07;1.97;;;13.50;99.90;;;;;;5133556;27;20661;-85
2022/10/21 05:27:11;;;;;;;2.00;1.83;;;;;;;;;;5133064;27;20645;-84
2022/10/21 05:29:37;;;;;;;3.10;1.83;;;14.10;99.90;;;;;;5133505;27;20706;-84
2022/10/21 05:32:05;;;;;;;2.40;2.17;;;14.30;99.90;;;;;;5133375;27;20599;-84
2022/10/21 05:34:32;;;;;;;2.60;2.07;;;14.20;99.90;;;;;;5132777;27;21031;-84
2022/10/21 05:36:59;;;;;;;2.60;1.67;;;14.40;99.90;;;;;;5132935;27;20793;-84
2022/10/21 05:39:26;;;;;;;1.20;1.10;;;14.30;99.90;;;;;;5133086;27;20595;-84
2022/10/21 05:41:54;;;;;;;1.43;1.10;;;14.30;99.90;;;;;;5133366;27;20642;-84
2022/10/21 05:44:21;;;;;;;3.00;1.97;;;;;;;;;;5132925;27;20622;-84
2022/10/21 05:46:48;;;;;;;3.13;2.63;;;14.40;99.90;;;;;;5133120;27;20615;-84
2022/10/21 05:49:15;;;;;;;1.30;1.07;;;14.70;99.90;;;;;;5126500;27;20762;-84
2022/10/21 05:51:43;;;;;;;2.13;1.40;;;14.40;99.90;;;;;;5114309;27;21090;-84
2022/10/21 05:54:10;;;;;;;1.80;1.30;;;14.50;99.90;;;;;;5131728;27;20666;-87
2022/10/21 05:56:37;;;;;;;4.43;1.10;;;14.50;99.90;;;;;;5125097;27;20706;-83
2022/10/21 05:59:05;;;;;;;3.40;1.97;;;14.50;99.90;;;;;;5129413;27;20714;-84
2022/10/21 06:01:32;;;;;;;2.53;1.33;;;14.50;99.90;;;;;;5111665;28;20627;-84
2022/10/21 06:03:59;;;;;;;6.23;2.10;;;14.50;99.90;;;;;;5111973;28;20642;-85
2022/10/21 06:06:26;;;;;;;2.40;1.90;;;14.50;99.90;;;;;;5111812;28;21145;-84
2022/10/21 06:08:53;;;;;;;3.17;2.57;;;14.50;99.90;;;;;;5111609;28;20655;-86
2022/10/21 06:11:20;;;;;;;1.20;0.97;;;14.50;99.90;;;;;;5111981;28;21014;-84
2022/10/21 06:13:47;;;;;;;2.13;1.90;;;14.60;99.90;;;;;;5132278;27;20642;-85
2022/10/21 06:16:16;;;;;;;3.50;2.10;;;14.60;99.90;;;;;;5131147;27;20615;-84
2022/10/21 06:18:43;;;;;;;3.80;1.97;;;14.80;99.90;;;;;;5111362;28;21211;-85
2022/10/21 06:21:10;;;;;;;1.83;1.73;;;14.60;99.90;;;;;;5111804;28;21169;-85
2022/10/21 06:23:38;;;;;;;6.63;2.43;;;;;;;;;;5111977;28;20604;-85
2022/10/21 06:26:06;;;;;;;3.20;1.90;;;14.50;99.90;;;;;;5111254;28;20653;-87
2022/10/21 06:28:36;;;;;;;2.73;1.97;;;14.60;99.90;;;;;;5111441;28;20746;-85
2022/10/21 06:31:03;;;;;;;2.07;1.90;;;14.50;99.90;;;;;;5111291;28;20646;-86
2022/10/21 06:33:31;;;;;;;2.57;2.33;;;14.60;99.90;;;;;;5121982;27;20660;-85
2022/10/21 06:35:59;;;;;;;4.30;2.37;;;;;;;;;;5132269;27;20650;-85
2022/10/21 06:38:26;;;;;;;8.00;3.83;;;14.50;99.90;;;;;;5131769;27;20640;-88
2022/10/21 06:41:00;;;;;;;5.67;4.00;;;14.50;99.90;;;;;;5131709;27;20718;-85
2022/10/21 06:43:27;;;;;;;6.97;4.70;;;14.60;99.90;;;;;;5131597;27;20683;-86
2022/10/21 06:45:59;;;;;;;4.80;4.23;;;14.50;99.90;;;;;;5131650;27;20659;-86
2022/10/21 06:48:26;;;;;;;5.60;4.00;;;14.90;99.90;;;;;;5132096;27;20709;-88
2022/10/21 06:50:58;;;;;;;4.83;4.30;;;14.50;99.90;;;;;;5131507;27;20599;-85
2022/10/21 06:53:25;;;;;;;5.07;3.77;;;14.50;99.90;;;;;;5132174;27;20623;-84
2022/10/21 06:56:00;;;;;;;6.30;3.63;;;14.70;99.90;;;;;;5130680;27;20619;-85
2022/10/21 06:58:27;;;;;;;3.40;2.67;;;14.50;99.90;;;;;;5131879;27;20611;-84
2022/10/21 07:00:54;;;;;;;2.33;2.13;;;15.40;99.90;;;;;;5111169;28;20723;-84
2022/10/21 07:03:21;;;;;;;2.30;1.50;;;14.50;99.90;;;;;;5110712;28;20668;-84
2022/10/21 07:05:47;;;;;;;1.43;1.33;;;14.60;99.90;;;;;;5111220;28;20672;-85
2022/10/21 07:08:16;;;;;;;2.47;2.10;;;15.30;99.90;;;;;;5110287;28;20702;-85
2022/10/21 07:10:44;;;;;;;3.00;1.83;;;14.60;99.90;;;;;;5111264;28;20606;-87
2022/10/21 07:13:11;;;;;;;1.63;1.40;;;15.20;99.90;;;;;;5126875;28;20609;-85
2022/10/21 07:15:38;;;;;;;1.83;1.60;;;14.70;99.90;;;;;;5131691;27;20754;-84
2022/10/21 07:18:05;;;;;;;3.17;1.90;;;14.60;99.90;;;;;;5131847;28;20611;-85
2022/10/21 07:20:33;;;;;;;1.37;1.27;;;14.70;99.90;;;;;;5131833;28;20640;-86
2022/10/21 07:23:00;;;;;;;1.97;1.77;;;15.00;99.90;;;;;;5130542;28;20610;-84
2022/10/21 07:25:28;;;;;;;2.60;1.50;;;14.80;99.90;;;;;;5131379;28;21168;-84
2022/10/21 07:27:55;;;;;;;3.53;2.00;;;14.80;99.90;;;;;;5131311;28;20702;-86
2022/10/21 07:30:22;;;;;;;2.20;2.00;;;14.80;99.90;;;;;;5131146;28;20725;-86
2022/10/21 07:32:50;;;;;;;2.10;1.90;;;14.70;99.90;;;;;;5131675;28;20611;-86
2022/10/21 07:35:17;;;;;;;2.47;2.10;;;14.80;99.90;;;;;;5131238;28;20727;-87
2022/10/21 07:37:44;;;;;;;1.73;1.60;;;14.70;99.90;;;;;;5112700;28;21225;-87
2022/10/21 07:40:11;;;;;;;2.83;2.63;;;14.70;99.90;;;;;;5111136;28;20651;-87
2022/10/21 07:42:39;;;;;;;2.60;1.53;;;14.70;99.90;;;;;;5111328;28;20618;-86
2022/10/21 07:45:07;;;;;;;3.67;2.37;;;14.70;99.90;;;;;;5110998;28;20661;-87
2022/10/21 07:47:33;;;;;;;3.00;2.73;;;14.80;99.90;;;;;;5111340;28;20643;-86
2022/10/21 07:50:00;;;;;;;1.77;1.57;;;14.90;99.90;;;;;;5123124;28;20662;-86
2022/10/21 07:52:27;;;;;;;1.50;1.27;;;14.80;99.90;;;;;;5131563;28;21283;-87
2022/10/21 07:54:54;;;;;;;7.10;1.60;;;14.70;99.90;;;;;;5131204;28;20725;-86
2022/10/21 07:57:21;;;;;;;3.60;1.93;;;14.80;99.90;;;;;;5131537;28;21146;-86
2022/10/21 07:59:49;;;;;;;4.03;2.40;;;14.90;99.90;;;;;;5119512;28;20620;-88
2022/10/21 08:02:16;;;;;;;1.80;1.37;;;14.90;99.90;;;;;;5110739;28;20739;-87
2022/10/21 08:04:43;;;;;;;1.87;1.57;;;14.80;99.90;;;;;;5110072;28;21174;-86
2022/10/21 08:07:09;;;;;;;3.50;2.17;;;14.90;99.90;;;;;;5110952;28;20626;-87
2022/10/21 08:09:36;;;;;;;9.20;2.27;;;14.90;99.90;;;;;;5110825;28;20651;-87
2022/10/21 08:12:03;;;;;;;3.30;2.40;;;;;;;;;;5117000;28;20726;-86
2022/10/21 08:14:30;;;;;;;1.50;1.23;;;;;;;;;;5131133;27;21233;-88
2022/10/21 08:16:59;;;;;;;1.50;1.40;;;15.00;99.90;;;;;;5134298;27;20710;-86
2022/10/21 08:19:28;;;;;;;3.00;1.33;;;15.20;99.90;;;;;;5134870;27;20683;-87
2022/10/21 08:21:55;;;;;;;6.13;1.60;;;15.20;99.90;;;;;;5135029;27;20674;-86
2022/10/21 08:24:23;;;;;;;1.70;1.60;;;15.10;99.90;;;;;;5134797;27;20623;-86
2022/10/21 08:26:50;;;;;;;0.90;0.90;;;15.00;99.90;;;;;;5134633;27;20718;-85
2022/10/21 08:29:17;;;;;;;1.97;1.83;;;15.00;99.90;;;;;;5134635;27;20658;-87
2022/10/21 08:31:44;;;;;;;3.27;1.73;;;15.00;99.90;;;;;;5133901;27;20610;-85
2022/10/21 08:34:12;;;;;;;2.03;1.93;;;15.00;99.90;;;;;;5133767;27;20618;-86
2022/10/21 08:36:39;;;;;;;1.93;1.70;;;15.00;99.90;;;;;;5124878;27;20626;-87
2022/10/21 08:39:07;;;;;;;4.50;2.93;;;15.00;99.90;;;;;;5113948;28;20645;-86
2022/10/21 08:41:56;;;;;;;4.30;2.03;;;14.90;99.90;;;;;;5124265;27;20718;-85
2022/10/21 08:44:31;;;;;;;3.17;2.40;;;14.80;99.90;;;;;;5134554;27;20618;-87
2022/10/21 08:47:04;;;;;;;4.30;2.57;;;14.80;99.90;;;;;;5134404;27;21059;-86
2022/10/21 08:49:42;;;;;;;3.40;3.20;;;14.90;99.90;;;;;;5134179;27;20761;-86
2022/10/21 08:52:13;;;;;;;3.40;2.17;;;14.90;99.90;;;;;;5134555;27;20617;-87
2022/10/21 08:54:44;;;;;;;2.30;1.90;;;14.80;99.90;;;;;;5133355;27;20626;-85
2022/10/21 08:57:12;;;;;;;1.93;1.73;;;14.80;99.90;;;;;;5133755;27;20595;-85
2022/10/21 08:59:40;;;;;;;3.83;2.23;;;14.80;99.90;;;;;;5123662;27;20639;-87
2022/10/21 09:02:33;;;;;;;4.80;2.63;;;14.80;99.90;;;;;;5113610;28;20649;-85
2022/10/21 09:05:20;;;;;;;2.70;2.17;;;14.80;99.90;;;;;;5112719;28;20616;-86
2022/10/21 09:07:56;;;;;;;2.73;2.00;;;14.80;99.90;;;;;;5113436;28;21183;-85
2022/10/21 09:10:34;;;;;;;3.53;1.53;;;14.70;99.90;;;;;;5113496;28;20654;-86
2022/10/21 09:13:09;;;;;;;2.20;2.10;;;15.30;99.90;;;;;;5127964;27;20646;-87
2022/10/21 09:15:55;;;;;;;2.23;2.13;;;14.80;99.90;;;;;;5133506;27;20610;-86
2022/10/21 09:18:40;;;;;;;5.50;2.83;;;14.90;99.90;;;;;;5134235;27;20618;-87
2022/10/21 09:21:20;;;;;;;2.93;1.83;;;14.90;99.90;;;;;;5133785;27;21026;-87
2022/10/21 09:23:58;;;;;;;3.50;2.20;;;15.00;99.90;;;;;;5132061;27;20625;-88
2022/10/21 09:26:36;;;;;;;3.30;1.83;;;15.00;99.90;;;;;;5133125;27;20623;-86
2022/10/21 09:29:23;;;;;;;1.53;1.40;;;15.10;99.90;;;;;;5134002;27;21092;-88
2022/10/21 09:31:51;;;;;;;2.37;2.00;;;15.10;99.90;;;;;;5133582;27;20636;-87
2022/10/21 09:34:22;;;;;;;1.40;1.30;;;16.00;99.90;;;;;;5132873;27;20643;-87
2022/10/21 09:36:52;;;;;;;0.97;0.97;;;15.30;99.90;;;;;;5133246;27;20742;-87
2022/10/21 09:39:24;;;;;;;0.80;0.80;;;15.20;99.90;;;;;;5133449;27;20618;-87
2022/10/21 09:41:56;;;;;;;1.97;1.50;;;15.20;99.90;;;;;;5133274;27;20664;-87
2022/10/21 09:44:24;;;;;;;2.80;1.20;;;15.20;99.90;;;;;;5133278;27;20617;-88
2022/10/21 09:46:52;;;;;;;0.77;0.77;;;15.20;99.90;;;;;;5133016;27;20603;-87
2022/10/21 09:49:27;;;;;;;1.00;0.90;;;15.30;99.90;;;;;;5133386;27;20757;-87
2022/10/21 09:51:58;;;;;;;2.20;2.00;;;15.40;99.90;;;;;;5132979;27;20620;-87
2022/10/21 09:54:27;;;;;;;2.13;1.07;;;15.20;99.90;;;;;;5132856;27;20687;-87
2022/10/21 09:57:01;;;;;;;2.07;1.10;;;15.00;99.90;;;;;;5132520;27;20919;-87
2022/10/21 09:59:30;;;;;;;0.70;0.70;;;15.30;99.90;;;;;;5116809;27;20604;-87
2022/10/21 10:01:57;;;;;;;0.90;0.90;;;15.30;99.90;;;;;;5112369;28;20626;-86
2022/10/21 10:04:29;;;;;;;0.80;0.60;;;15.30;99.90;;;;;;5112246;28;20596;-86
2022/10/21 10:07:00;;;;;;;1.00;0.93;;;15.30;99.90;;;;;;5112310;28;20612;-87
2022/10/21 10:09:28;;;;;;;2.30;1.33;;;15.30;99.90;;;;;;5111814;28;20750;-86
2022/10/21 10:11:57;;;;;;;2.20;1.57;;;15.30;99.90;;;;;;5117534;27;20750;-85
2022/10/21 10:14:30;;;;;;;1.20;1.10;;;15.30;99.90;;;;;;5132612;27;20625;-87
2022/10/21 10:16:59;;;;;;;0.60;0.60;;;15.30;99.90;;;;;;5132192;27;20617;-86
2022/10/21 10:19:27;;;;;;;0.97;0.83;;;15.30;99.90;;;;;;5132598;27;20725;-87
2022/10/21 10:22:12;;;;;;;0.90;0.80;;;15.30;99.90;;;;;;5132677;27;20718;-86
2022/10/21 10:24:40;;;;;;;1.53;1.10;;;15.30;99.90;;;;;;5132459;27;20710;-86
2022/10/21 10:27:11;;;;;;;1.40;1.10;;;15.40;99.90;;;;;;5132519;27;20626;-85
2022/10/21 10:29:40;;;;;;;1.10;0.90;;;15.80;99.90;;;;;;5132368;27;20642;-85
2022/10/21 10:32:15;;;;;;;1.53;0.93;;;15.40;99.90;;;;;;5132278;27;20756;-85
2022/10/21 10:34:51;;;;;;;1.17;1.17;;;15.30;99.90;;;;;;5111514;28;20614;-84
2022/10/21 10:37:22;;;;;;;2.60;1.00;;;15.50;99.90;;;;;;5113579;27;20620;-86
2022/10/21 10:42:36;;;;;;;1.07;1.00;;;15.50;99.90;;;;;;5111824;28;20992;-86
2022/10/21 10:45:12;;;;;;;2.57;1.43;;;15.50;99.90;;;;;;5110950;28;20718;-86
2022/10/21 10:47:47;;;;;;;1.97;1.77;;;15.50;99.90;;;;;;5111658;28;20614;-86
2022/10/21 10:50:42;;;;;;;1.30;1.20;;;15.30;99.90;;;;;;5111493;28;20697;-85
2022/10/21 10:53:30;;;;;;;0.90;0.90;;;15.50;99.90;;;;;;5111290;28;21162;-86
2022/10/21 10:56:04;;;;;;;1.90;1.07;;;15.50;99.90;;;;;;5111355;28;21076;-85
2022/10/21 10:58:34;;;;;;;1.90;0.90;;;15.60;99.90;;;;;;5114099;27;21106;-86
2022/10/21 11:01:06;;;;;;;1.73;1.63;;;15.80;99.90;;;;;;5111237;28;20697;-85
2022/10/21 11:03:42;;;;;;;0.93;0.83;;;15.70;99.90;;;;;;5111116;28;20647;-86
2022/10/21 11:06:15;;;;;;;1.50;1.40;;;16.40;99.90;;;;;;5111506;28;20654;-86
2022/10/21 11:08:47;;;;;;;1.60;1.30;;;15.70;99.90;;;;;;5111418;28;20615;-86
2022/10/21 11:11:20;;;;;;;1.83;1.10;;;16.00;99.90;;;;;;5112968;28;20714;-85
2022/10/21 11:13:46;;;;;;;1.20;1.10;;;15.80;99.90;;;;;;5111303;28;20723;-85
2022/10/21 11:16:31;;;;;;;0.97;0.97;;;15.80;99.90;;;;;;5116146;28;20680;-85
2022/10/21 11:19:07;;;;;;;2.13;1.80;;;15.90;99.90;;;;;;5131664;27;20713;-85
2022/10/21 11:21:44;;;;;;;1.30;1.10;;;15.90;99.90;;;;;;5131609;28;20655;-86
2022/10/21 11:24:52;;;;;;;3.40;1.03;;;16.10;99.90;;;;;;5131875;27;20625;-85
2022/10/21 11:27:40;;;;;;;1.80;1.70;;;16.20;99.90;;;;;;5104513;27;20693;-85
2022/10/21 11:30:12;;;;;;;0.97;0.70;;;16.10;99.90;;;;;;5129197;27;20789;-86
2022/10/21 11:33:02;;;;;;;1.27;0.87;;;16.20;99.90;;;;;;5131758;28;20655;-85
2022/10/21 11:35:41;;;;;;;2.57;1.13;;;16.20;99.90;;;;;;5132112;28;20615;-86
2022/10/21 11:38:24;;;;;;;1.43;1.20;;;16.30;99.90;;;;;;5111216;28;20611;-85
2022/10/21 11:40:58;;;;;;;1.83;1.50;;;16.30;99.90;;;;;;5111102;28;20623;-85
2022/10/21 11:43:39;;;;;;;3.27;1.43;;;16.30;99.90;;;;;;5110522;28;21220;-85
2022/10/21 11:46:12;;;;;;;1.13;0.70;;;16.40;99.90;;;;;;5111528;28;20681;-86
2022/10/21 11:49:09;;;;;;;2.57;1.17;;;16.50;99.90;;;;;;5114766;27;21148;-85
2022/10/21 11:51:44;;;;;;;0.67;0.67;;;16.50;99.90;;;;;;5129937;27;21317;-85
2022/10/21 11:54:27;;;;;;;1.30;0.90;;;16.40;99.90;;;;;;5135412;27;20652;-86
2022/10/21 11:57:01;;;;;;;2.37;1.40;;;16.60;99.90;;;;;;5135622;27;20650;-85
2022/10/21 11:59:37;;;;;;;1.37;1.00;;;16.50;99.90;;;;;;5126533;27;20706;-86
2022/10/21 12:02:17;;;;;;;1.13;0.97;;;16.50;99.90;;;;;;5114041;28;20607;-85
2022/10/21 12:04:51;;;;;;;1.93;0.80;;;16.40;99.90;;;;;;5116348;27;20672;-85
2022/10/21 12:07:31;;;;;;;1.10;1.00;;;16.40;99.90;;;;;;5135239;27;21064;-86
2022/10/21 12:10:01;;;;;;;0.70;0.50;;;16.20;99.90;;;;;;5135052;27;20658;-85
2022/10/21 12:12:45;;;;;;;0.60;0.60;;;16.40;99.90;;;;;;5135023;27;20625;-85
2022/10/21 12:15:17;;;;;;;0.60;0.60;;;16.40;99.90;;;;;;5135458;27;20603;-86
2022/10/21 12:17:47;;;;;;;0.77;0.77;;;16.40;99.90;;;;;;5134864;27;20718;-85
2022/10/21 12:20:19;;;;;;;1.33;0.70;;;16.40;99.90;;;;;;5134975;27;20610;-85
2022/10/21 12:22:47;;;;;;;1.53;1.00;;;16.40;99.90;;;;;;5134915;27;21190;-85
2022/10/21 12:25:28;;;;;;;0.50;0.50;;;16.40;99.90;;;;;;5134728;27;20616;-86
2022/10/21 12:28:03;;;;;;;1.00;0.63;;;16.50;99.90;;;;;;5134881;27;21225;-86
2022/10/21 12:30:39;;;;;;;0.67;0.47;;;16.60;99.90;;;;;;5134366;27;20653;-85
2022/10/21 12:33:16;;;;;;;0.50;0.50;;;16.40;99.90;;;;;;5134691;27;20717;-86
2022/10/21 12:35:49;;;;;;;1.03;0.70;;;16.30;99.90;;;;;;5133631;27;20607;-85
2022/10/21 12:38:45;;;;;;;0.40;0.40;;;16.40;99.90;;;;;;5113986;27;20681;-85
2022/10/21 12:41:27;;;;;;;1.13;0.40;;;16.30;99.90;;;;;;5125344;27;20619;-86
2022/10/21 12:44:02;;;;;;;0.40;0.30;;;16.30;99.90;;;;;;5127451;27;20679;-86
2022/10/21 12:46:34;;;;;;;0.43;0.40;;;16.60;99.90;;;;;;5124995;27;20610;-85
2022/10/21 12:49:05;;;;;;;0.80;0.80;;;16.20;99.90;;;;;;5128212;27;20734;-85
2022/10/21 12:51:34;;;;;;;0.90;0.70;;;16.20;99.90;;;;;;5126082;27;21265;-85
2022/10/21 12:54:10;;;;;;;0.63;0.63;;;16.20;99.90;;;;;;5124358;27;20616;-85
2022/10/21 12:56:45;;;;;;;1.73;0.90;;;16.10;99.90;;;;;;5124995;27;20622;-85
2022/10/21 12:59:27;;;;;;;0.90;0.90;;;16.10;99.90;;;;;;5128239;27;20709;-84
2022/10/21 13:02:26;;;;;;;1.07;0.97;;;16.10;99.90;;;;;;5135527;27;20607;-83
2022/10/21 13:04:57;;;;;;;0.97;0.70;;;16.10;99.90;;;;;;5125360;27;20623;-85
2022/10/21 13:08:00;;;;;;;0.50;0.40;;;16.10;99.90;;;;;;5116374;28;20631;-83
2022/10/21 13:10:27;;;;;;;1.30;0.90;;;16.10;99.90;;;;;;5115471;28;20670;-83
2022/10/21 13:13:31;;;;;;;0.67;0.50;;;16.10;99.90;;;;;;5128049;27;20666;-82